createdAt,value
2019-02-03T00:01:37.160Z,4.43
2019-02-03T00:04:13.755Z,8.60
2019-02-03T00:06:45.599Z,5.97
2019-02-03T00:09:15.849Z,5.40
2019-02-03T00:11:44.580Z,6.80
2019-02-03T00:14:14.787Z,7.53
2019-02-03T00:16:43.476Z,7.30
2019-02-03T00:19:14.243Z,7.57
2019-02-03T00:21:42.867Z,6.30
2019-02-03T00:24:11.547Z,3.80
2019-02-03T00:26:40.331Z,2.43
2019-02-03T00:29:08.997Z,2.13
2019-02-03T00:31:37.614Z,2.77
2019-02-03T00:34:06.395Z,2.63
2019-02-03T00:36:36.639Z,3.17
2019-02-03T00:39:07.360Z,4.23
2019-02-03T00:41:36.011Z,3.93
2019-02-03T00:44:05.295Z,2.80
2019-02-03T00:46:34.462Z,2.80
2019-02-03T00:49:03.091Z,3.83
2019-02-03T00:51:31.790Z,3.00
2019-02-03T00:54:00.431Z,3.53
2019-02-03T00:56:29.978Z,4.10
2019-02-03T00:58:58.612Z,2.67
2019-02-03T01:01:27.288Z,2.77
2019-02-03T01:03:58.012Z,2.77
2019-02-03T01:06:29.377Z,2.40
2019-02-03T01:09:00.472Z,3.00
2019-02-03T01:11:29.154Z,4.17
2019-02-03T01:13:57.925Z,2.30
2019-02-03T01:16:26.602Z,1.70
2019-02-03T01:18:55.222Z,2.50
2019-02-03T01:21:28.304Z,2.13
2019-02-03T01:23:56.930Z,2.43
2019-02-03T01:26:26.075Z,4.77
2019-02-03T01:28:56.333Z,6.13
2019-02-03T01:31:25.072Z,4.70
2019-02-03T01:33:53.750Z,5.20
2019-02-03T01:36:22.405Z,6.83
2019-02-03T01:38:54.195Z,6.27
2019-02-03T01:41:22.814Z,5.60
2019-02-03T01:43:52.947Z,5.83
2019-02-03T01:46:21.622Z,4.40
2019-02-03T01:48:50.245Z,7.67
2019-02-03T01:51:18.859Z,5.60
2019-02-03T01:53:47.921Z,4.43
2019-02-03T01:56:16.534Z,4.20
2019-02-03T01:58:46.960Z,3.30
2019-02-03T02:01:15.556Z,2.70
2019-02-03T02:03:46.971Z,2.70
2019-02-03T02:06:15.659Z,2.10
2019-02-03T02:08:44.264Z,2.77
2019-02-03T02:11:12.867Z,2.20
2019-02-03T02:13:41.551Z,2.63
2019-02-03T02:16:10.225Z,3.30
2019-02-03T02:18:40.410Z,2.77
2019-02-03T02:21:09.016Z,3.37
2019-02-03T02:23:37.695Z,2.67
2019-02-03T02:26:06.307Z,2.27
2019-02-03T02:28:34.983Z,2.97
2019-02-03T02:31:05.169Z,2.00
2019-02-03T02:33:33.843Z,3.23
2019-02-03T02:36:02.480Z,2.57
2019-02-03T02:38:31.228Z,3.27
2019-02-03T02:41:05.102Z,3.00
2019-02-03T02:43:33.758Z,3.17
2019-02-03T02:46:03.982Z,2.70
2019-02-03T02:48:32.716Z,3.00
2019-02-03T02:51:02.894Z,2.90
2019-02-03T02:53:31.504Z,2.60
2019-02-03T02:56:00.186Z,3.17
2019-02-03T02:58:28.817Z,3.00
2019-02-03T03:01:01.332Z,3.57
2019-02-03T03:03:30.422Z,3.50
2019-02-03T03:05:59.053Z,4.10
2019-02-03T03:08:27.743Z,4.73
2019-02-03T03:10:56.453Z,3.70
2019-02-03T03:13:25.108Z,3.47
2019-02-03T03:15:53.710Z,3.40
2019-02-03T03:18:22.727Z,3.20
2019-02-03T03:20:52.207Z,2.87
2019-02-03T03:23:22.350Z,3.27
2019-02-03T03:25:51.031Z,2.67
2019-02-03T03:28:19.645Z,2.93
2019-02-03T03:30:48.286Z,3.20
2019-02-03T03:33:17.247Z,3.23
2019-02-03T03:35:45.988Z,2.83
2019-02-03T03:38:14.675Z,2.30
2019-02-03T03:40:43.369Z,2.33
2019-02-03T03:43:14.678Z,3.37
2019-02-03T03:45:43.961Z,2.60
2019-02-03T03:48:12.565Z,1.97
2019-02-03T03:50:41.168Z,2.10
2019-02-03T03:53:11.400Z,1.73
2019-02-03T03:55:40.109Z,2.47
2019-02-03T03:58:20.555Z,1.77
2019-02-03T04:00:49.165Z,1.63
2019-02-03T04:03:19.439Z,2.57
2019-02-03T04:05:48.067Z,2.50
2019-02-03T04:08:16.728Z,3.27
2019-02-03T04:10:45.364Z,2.80
2019-02-03T04:13:14.145Z,2.70
2019-02-03T04:15:44.128Z,3.23
2019-02-03T04:18:12.811Z,2.50
2019-02-03T04:20:41.480Z,1.97
2019-02-03T04:23:10.137Z,1.90
2019-02-03T04:25:39.296Z,2.10
2019-02-03T04:28:07.917Z,3.90
2019-02-03T04:30:40.777Z,2.70
2019-02-03T04:33:09.400Z,1.80
2019-02-03T04:35:38.010Z,2.00
2019-02-03T04:38:06.681Z,1.53
2019-02-03T04:40:36.829Z,0.70
2019-02-03T04:43:05.498Z,1.00
2019-02-03T04:45:34.175Z,1.27
2019-02-03T04:48:02.905Z,0.83
2019-02-03T04:50:34.783Z,1.17
2019-02-03T04:53:01.973Z,1.20
2019-02-03T04:55:33.466Z,1.87
2019-02-03T04:58:02.100Z,2.00
2019-02-03T05:00:33.072Z,2.27
2019-02-03T05:03:01.696Z,2.43
2019-02-03T05:05:30.392Z,2.93
2019-02-03T05:07:58.987Z,2.50
2019-02-03T05:10:27.669Z,1.40
2019-02-03T05:12:56.346Z,1.10
2019-02-03T05:15:24.960Z,0.97
2019-02-03T05:17:53.631Z,1.20
2019-02-03T05:20:26.608Z,1.30
2019-02-03T05:22:55.684Z,1.10
2019-02-03T05:25:24.339Z,1.00
2019-02-03T05:27:52.920Z,1.30
2019-02-03T05:30:24.352Z,1.33
2019-02-03T05:32:53.025Z,1.63
2019-02-03T05:35:23.766Z,1.10
2019-02-03T05:37:55.486Z,0.97
2019-02-03T05:40:24.396Z,0.77
2019-02-03T05:42:54.519Z,0.77
2019-02-03T05:45:24.011Z,0.80
2019-02-03T05:47:53.101Z,0.60
2019-02-03T05:50:22.416Z,0.80
2019-02-03T05:52:51.081Z,0.67
2019-02-03T05:55:20.004Z,0.77
2019-02-03T05:57:48.738Z,0.60
2019-02-03T06:00:32.374Z,0.50
2019-02-03T06:03:00.971Z,0.40
2019-02-03T06:05:29.751Z,0.50
2019-02-03T06:07:58.360Z,0.40
2019-02-03T06:10:26.968Z,0.30
2019-02-03T06:12:55.659Z,0.30
2019-02-03T06:15:25.420Z,0.40
2019-02-03T06:17:54.130Z,0.50
2019-02-03T06:20:22.754Z,0.30
2019-02-03T06:22:51.439Z,0.37
2019-02-03T06:25:20.051Z,0.97
2019-02-03T06:27:49.061Z,2.27
2019-02-03T06:30:29.385Z,2.97
2019-02-03T06:32:58.052Z,1.63
2019-02-03T06:35:29.863Z,0.60
2019-02-03T06:37:58.527Z,0.30
2019-02-03T06:40:30.222Z,0.20
2019-02-03T06:42:58.946Z,0.40
2019-02-03T06:45:32.642Z,0.30
2019-02-03T06:48:01.344Z,0.20
2019-02-03T06:50:31.416Z,0.20
2019-02-03T06:53:00.153Z,0.20
2019-02-03T06:55:31.875Z,0.30
2019-02-03T06:58:00.577Z,0.30
2019-02-03T07:00:29.229Z,0.20
2019-02-03T07:02:57.867Z,1.50
2019-02-03T07:05:30.148Z,3.10
2019-02-03T07:07:58.756Z,2.67
2019-02-03T07:10:27.517Z,1.60
2019-02-03T07:12:56.125Z,0.97
2019-02-03T07:15:26.290Z,0.40
2019-02-03T07:17:55.485Z,0.30
2019-02-03T07:20:24.193Z,0.30
2019-02-03T07:22:53.169Z,0.40
2019-02-03T07:25:21.851Z,5.83
2019-02-03T07:27:50.671Z,6.67
2019-02-03T07:30:24.264Z,5.83
2019-02-03T07:32:58.941Z,6.70
2019-02-03T07:35:27.566Z,4.47
2019-02-03T07:37:57.840Z,1.70
2019-02-03T07:40:26.538Z,0.60
2019-02-03T07:42:55.147Z,0.47
2019-02-03T07:45:23.847Z,0.70
2019-02-03T07:47:52.568Z,0.93
2019-02-03T07:50:21.282Z,0.43
2019-02-03T07:52:49.959Z,0.60
2019-02-03T07:55:18.595Z,15.17
2019-02-03T07:57:51.363Z,0.60
2019-02-03T08:00:22.111Z,0.57
2019-02-03T08:02:52.368Z,0.50
2019-02-03T08:05:20.986Z,0.67
2019-02-03T08:07:49.645Z,0.70
2019-02-03T08:10:25.780Z,0.70
2019-02-03T08:12:51.761Z,1.53
2019-02-03T08:15:21.707Z,0.70
2019-02-03T08:17:50.396Z,4.00
2019-02-03T08:20:21.140Z,5.60
2019-02-03T08:22:49.859Z,6.60
2019-02-03T08:25:19.069Z,5.93
2019-02-03T08:27:48.132Z,5.93
2019-02-03T08:30:26.271Z,3.23
2019-02-03T08:32:55.048Z,5.73
2019-02-03T08:35:25.268Z,4.10
2019-02-03T08:37:53.948Z,2.67
2019-02-03T08:40:36.152Z,1.03
2019-02-03T08:42:56.570Z,0.63
2019-02-03T08:45:25.845Z,0.90
2019-02-03T08:47:54.471Z,3.07
2019-02-03T08:50:30.610Z,5.90
2019-02-03T08:52:59.632Z,1.50
2019-02-03T08:55:28.314Z,0.67
2019-02-03T08:57:57.835Z,1.10
2019-02-03T09:00:31.424Z,0.20
2019-02-03T09:03:01.777Z,0.20
2019-02-03T09:05:31.087Z,1.13
2019-02-03T09:07:59.837Z,1.00
2019-02-03T09:10:28.521Z,1.23
2019-02-03T09:12:58.581Z,2.30
2019-02-03T09:15:29.539Z,1.10
2019-02-03T09:17:58.230Z,1.07
2019-02-03T09:20:29.884Z,0.83
2019-02-03T09:22:58.831Z,1.47
2019-02-03T09:25:30.579Z,0.63
2019-02-03T09:28:00.904Z,2.73
2019-02-03T09:30:35.218Z,3.30
2019-02-03T09:33:04.114Z,1.10
2019-02-03T09:35:35.279Z,0.83
2019-02-03T09:38:08.047Z,0.70
2019-02-03T09:40:38.597Z,1.10
2019-02-03T09:43:10.557Z,0.90
2019-02-03T09:45:39.314Z,0.67
2019-02-03T09:48:10.976Z,0.57
2019-02-03T09:50:39.763Z,0.70
2019-02-03T09:53:13.349Z,0.50
2019-02-03T09:55:44.242Z,1.00
2019-02-03T09:58:19.063Z,0.57
2019-02-03T10:00:43.631Z,0.30
2019-02-03T10:03:16.525Z,0.37
2019-02-03T10:05:48.057Z,1.07
2019-02-03T10:08:19.206Z,3.50
2019-02-03T10:10:50.245Z,3.20
2019-02-03T10:13:19.042Z,1.73
2019-02-03T10:15:47.733Z,1.27
2019-02-03T10:18:16.405Z,0.67
2019-02-03T10:20:46.830Z,1.13
2019-02-03T10:23:15.831Z,0.90
2019-02-03T10:25:46.153Z,0.47
2019-02-03T10:28:14.837Z,0.60
2019-02-03T10:30:47.722Z,0.70
2019-02-03T10:33:16.374Z,1.00
2019-02-03T10:35:45.597Z,0.50
2019-02-03T10:38:14.233Z,0.90
2019-02-03T10:40:44.409Z,0.70
2019-02-03T10:43:13.115Z,0.93
2019-02-03T10:45:41.762Z,0.73
2019-02-03T10:48:10.427Z,1.20
2019-02-03T10:50:40.596Z,0.83
2019-02-03T10:53:12.356Z,1.20
2019-02-03T10:55:42.788Z,1.27
2019-02-03T10:58:11.480Z,1.00
2019-02-03T11:00:42.487Z,0.90
2019-02-03T11:03:11.203Z,0.50
2019-02-03T11:05:44.899Z,0.50
2019-02-03T11:08:14.911Z,0.53
2019-02-03T11:10:43.603Z,0.77
2019-02-03T11:13:13.798Z,0.70
2019-02-03T11:15:45.315Z,0.60
2019-02-03T11:18:14.846Z,0.80
2019-02-03T11:20:43.589Z,0.47
2019-02-03T11:23:12.590Z,0.50
2019-02-03T11:25:41.562Z,0.53
2019-02-03T11:28:10.408Z,1.07
2019-02-03T11:30:39.144Z,0.80
2019-02-03T11:33:09.930Z,1.10
2019-02-03T11:35:38.783Z,0.70
2019-02-03T11:38:07.880Z,0.70
2019-02-03T11:40:38.354Z,0.63
2019-02-03T11:43:10.790Z,0.47
2019-02-03T11:45:43.311Z,0.60
2019-02-03T11:48:20.865Z,0.60
2019-02-03T11:50:51.327Z,0.90
2019-02-03T11:53:22.815Z,0.50
2019-02-03T11:55:53.688Z,1.13
2019-02-03T11:58:22.338Z,1.67
2019-02-03T12:00:51.326Z,0.63
2019-02-03T12:03:20.148Z,1.10
2019-02-03T12:05:48.843Z,0.60
2019-02-03T12:08:19.143Z,0.80
2019-02-03T12:10:47.817Z,1.00
2019-02-03T12:13:18.777Z,0.53
2019-02-03T12:15:48.094Z,0.63
2019-02-03T12:18:18.715Z,0.80
2019-02-03T12:20:47.393Z,0.50
2019-02-03T12:23:16.218Z,0.37
2019-02-03T12:25:44.898Z,0.80
2019-02-03T12:28:14.673Z,0.80
2019-02-03T12:30:43.480Z,0.50
2019-02-03T12:33:12.343Z,0.70
2019-02-03T12:35:43.814Z,0.40
2019-02-03T12:38:12.584Z,0.30
2019-02-03T12:40:43.014Z,0.50
2019-02-03T12:43:11.698Z,0.50
2019-02-03T12:45:42.538Z,0.30
2019-02-03T12:48:11.319Z,0.30
2019-02-03T12:50:45.231Z,0.20
2019-02-03T12:53:16.924Z,0.60
2019-02-03T12:55:47.442Z,0.40
2019-02-03T12:58:19.900Z,0.30
2019-02-03T13:00:50.522Z,0.80
2019-02-03T13:03:19.520Z,0.50
2019-02-03T13:05:48.477Z,0.50
2019-02-03T13:08:21.499Z,0.47
2019-02-03T13:10:53.410Z,0.43
2019-02-03T13:13:22.562Z,0.77
2019-02-03T13:15:55.296Z,0.63
2019-02-03T13:18:24.640Z,0.67
2019-02-03T13:20:57.932Z,0.70
2019-02-03T13:23:27.004Z,0.93
2019-02-03T13:26:00.694Z,0.60
2019-02-03T13:28:29.121Z,1.47
2019-02-03T13:30:58.663Z,1.87
2019-02-03T13:33:30.405Z,0.77
2019-02-03T13:36:03.645Z,0.80
2019-02-03T13:38:34.223Z,0.67
2019-02-03T13:41:03.730Z,0.43
2019-02-03T13:43:32.605Z,1.20
2019-02-03T13:46:02.936Z,0.40
2019-02-03T13:48:34.805Z,0.50
2019-02-03T13:51:04.992Z,0.57
2019-02-03T13:53:37.712Z,0.73
2019-02-03T13:56:06.610Z,0.70
2019-02-03T13:58:38.325Z,0.50
2019-02-03T14:01:07.158Z,0.40
2019-02-03T14:03:36.792Z,0.40
2019-02-03T14:06:06.730Z,0.57
2019-02-03T14:08:35.667Z,0.40
2019-02-03T14:11:06.346Z,0.60
2019-02-03T14:13:36.989Z,0.53
2019-02-03T14:16:06.003Z,0.40
2019-02-03T14:18:36.498Z,0.40
2019-02-03T14:21:05.951Z,0.50
2019-02-03T14:23:37.798Z,0.50
2019-02-03T14:26:06.694Z,0.60
2019-02-03T14:28:35.992Z,0.30
2019-02-03T14:31:04.822Z,0.47
2019-02-03T14:33:33.837Z,0.60
2019-02-03T14:36:02.654Z,0.57
2019-02-03T14:38:33.201Z,0.40
2019-02-03T14:41:02.312Z,0.63
2019-02-03T14:43:31.210Z,0.43
2019-02-03T14:45:59.964Z,0.53
2019-02-03T14:48:30.404Z,0.70
2019-02-03T14:50:59.186Z,0.70
2019-02-03T14:53:29.408Z,0.60
2019-02-03T14:55:58.088Z,0.60
2019-02-03T14:58:27.120Z,0.73
2019-02-03T15:00:56.515Z,0.73
2019-02-03T15:03:25.294Z,1.10
2019-02-03T15:05:58.477Z,0.60
2019-02-03T15:08:27.601Z,0.83
2019-02-03T15:11:02.449Z,0.70
2019-02-03T15:13:32.521Z,0.70
2019-02-03T15:16:01.729Z,0.70
2019-02-03T15:18:32.879Z,1.00
2019-02-03T15:21:04.732Z,0.60
2019-02-03T15:23:33.403Z,0.90
2019-02-03T15:26:04.856Z,0.60
2019-02-03T15:28:33.787Z,0.50
2019-02-03T15:31:04.767Z,1.33
2019-02-03T15:33:33.062Z,0.93
2019-02-03T15:36:02.166Z,1.00
2019-02-03T15:38:32.824Z,0.90
2019-02-03T15:41:01.587Z,0.83
2019-02-03T15:43:30.368Z,0.60
2019-02-03T15:46:00.864Z,0.70
2019-02-03T15:48:30.618Z,0.70
2019-02-03T15:50:59.839Z,0.70
2019-02-03T15:53:28.507Z,0.67
2019-02-03T15:55:58.943Z,0.60
2019-02-03T15:58:32.212Z,0.60
2019-02-03T16:01:00.924Z,0.90
2019-02-03T16:03:29.691Z,2.77
2019-02-03T16:05:58.477Z,0.70
2019-02-03T16:08:31.607Z,0.67
2019-02-03T16:11:00.267Z,0.30
2019-02-03T16:13:37.310Z,0.70
2019-02-03T16:16:05.002Z,0.57
2019-02-03T16:18:38.096Z,0.87
2019-02-03T16:21:08.965Z,0.57
2019-02-03T16:23:37.738Z,0.40
2019-02-03T16:26:08.221Z,0.70
2019-02-03T16:28:39.342Z,0.60
2019-02-03T16:31:07.974Z,0.50
2019-02-03T16:33:37.131Z,0.90
2019-02-03T16:36:06.035Z,0.40
2019-02-03T16:38:35.111Z,0.57
2019-02-03T16:41:06.379Z,0.30
2019-02-03T16:43:35.166Z,0.33
2019-02-03T16:46:07.122Z,0.60
2019-02-03T16:48:35.827Z,0.60
2019-02-03T16:51:05.289Z,0.57
2019-02-03T16:53:34.611Z,0.63
2019-02-03T16:56:05.250Z,0.57
2019-02-03T16:58:33.985Z,0.60
2019-02-03T17:01:04.373Z,0.63
2019-02-03T17:03:33.054Z,0.70
2019-02-03T17:06:01.787Z,0.77
2019-02-03T17:08:33.492Z,0.70
2019-02-03T17:11:05.808Z,0.50
2019-02-03T17:13:34.692Z,0.67
2019-02-03T17:16:03.692Z,0.60
2019-02-03T17:18:32.335Z,0.63
2019-02-03T17:21:03.712Z,0.77
2019-02-03T17:23:34.732Z,0.67
2019-02-03T17:26:04.712Z,0.63
2019-02-03T17:28:33.356Z,0.63
2019-02-03T17:31:02.109Z,0.67
2019-02-03T17:33:30.839Z,0.43
2019-02-03T17:36:00.037Z,1.80
2019-02-03T17:38:28.924Z,0.90
2019-02-03T17:41:00.503Z,0.67
2019-02-03T17:43:30.811Z,0.67
2019-02-03T17:45:59.453Z,0.83
2019-02-03T17:48:28.297Z,0.80
2019-02-03T17:50:57.120Z,0.60
2019-02-03T17:53:26.195Z,1.10
2019-02-03T17:55:54.949Z,0.87
2019-02-03T17:58:23.666Z,0.57
2019-02-03T18:00:53.969Z,0.73
2019-02-03T18:03:22.742Z,0.80
2019-02-03T18:05:51.496Z,0.70
2019-02-03T18:08:20.178Z,0.83
2019-02-03T18:10:49.017Z,0.80
2019-02-03T18:13:19.296Z,1.00
2019-02-03T18:15:49.542Z,0.90
2019-02-03T18:18:18.266Z,1.30
2019-02-03T18:20:47.054Z,1.30
2019-02-03T18:23:17.183Z,1.20
2019-02-03T18:25:47.764Z,1.07
2019-02-03T18:28:17.005Z,1.63
2019-02-03T18:30:45.765Z,0.90
2019-02-03T18:33:14.449Z,1.33
2019-02-03T18:35:43.865Z,1.47
2019-02-03T18:38:15.165Z,0.90
2019-02-03T18:40:44.920Z,1.63
2019-02-03T18:43:14.043Z,1.77
2019-02-03T18:45:44.803Z,1.03
2019-02-03T18:48:14.120Z,2.07
2019-02-03T18:50:44.389Z,1.50
2019-02-03T18:53:13.285Z,1.30
2019-02-03T18:55:47.085Z,1.47
2019-02-03T18:58:18.826Z,1.37
2019-02-03T19:00:49.178Z,1.67
2019-02-03T19:03:18.042Z,2.10
2019-02-03T19:05:48.957Z,1.47
2019-02-03T19:08:19.768Z,1.00
2019-02-03T19:10:48.513Z,1.27
2019-02-03T19:13:17.198Z,1.40
2019-02-03T19:15:47.545Z,1.03
2019-02-03T19:18:16.959Z,1.40
2019-02-03T19:20:47.897Z,1.50
2019-02-03T19:23:16.674Z,2.00
2019-02-03T19:25:45.489Z,1.40
2019-02-03T19:28:15.441Z,1.27
2019-02-03T19:30:44.908Z,1.30
2019-02-03T19:33:15.323Z,1.00
2019-02-03T19:35:44.487Z,1.50
2019-02-03T19:38:14.850Z,2.10
2019-02-03T19:40:45.390Z,1.90
2019-02-03T19:43:16.029Z,1.60
2019-02-03T19:45:46.598Z,1.30
2019-02-03T19:48:18.830Z,1.50
2019-02-03T19:50:50.040Z,1.70
2019-02-03T19:53:18.910Z,1.47
2019-02-03T19:55:48.123Z,2.23
2019-02-03T19:58:22.544Z,1.90
2019-02-03T20:00:51.319Z,2.27
2019-02-03T20:03:20.752Z,1.80
2019-02-03T20:05:49.755Z,2.10
2019-02-03T20:08:20.227Z,2.33
2019-02-03T20:10:48.930Z,2.13
2019-02-03T20:13:19.501Z,1.87
2019-02-03T20:15:51.941Z,2.10
2019-02-03T20:18:22.720Z,2.40
2019-02-03T20:20:52.496Z,2.07
2019-02-03T20:23:21.428Z,3.67
2019-02-03T20:25:50.147Z,2.50
2019-02-03T20:28:19.121Z,2.40
2019-02-03T20:30:48.012Z,2.00
2019-02-03T20:33:16.898Z,2.00
2019-02-03T20:35:46.039Z,1.57
2019-02-03T20:38:16.775Z,1.47
2019-02-03T20:40:46.272Z,1.73
2019-02-03T20:43:18.142Z,2.67
2019-02-03T20:45:49.999Z,1.27
2019-02-03T20:48:19.081Z,2.10
2019-02-03T20:50:48.253Z,1.67
2019-02-03T20:53:18.011Z,1.63
2019-02-03T20:56:09.988Z,1.67
2019-02-03T20:58:39.414Z,2.00
2019-02-03T21:01:08.381Z,1.67
2019-02-03T21:03:39.012Z,1.70
2019-02-03T21:06:11.359Z,1.47
2019-02-03T21:08:44.052Z,1.03
2019-02-03T21:11:13.895Z,1.57
2019-02-03T21:13:45.012Z,1.50
2019-02-03T21:16:14.318Z,2.33
2019-02-03T21:18:45.258Z,1.27
2019-02-03T21:21:17.595Z,1.80
2019-02-03T21:23:48.025Z,2.37
2019-02-03T21:26:16.888Z,1.43
2019-02-03T21:28:45.656Z,2.30
2019-02-03T21:31:14.903Z,1.23
2019-02-03T21:33:43.718Z,1.90
2019-02-03T21:36:12.553Z,2.10
2019-02-03T21:38:41.328Z,2.93
2019-02-03T21:41:10.155Z,1.87
2019-02-03T21:43:38.976Z,1.80
2019-02-03T21:46:07.703Z,1.90
2019-02-03T21:48:37.794Z,1.70
2019-02-03T21:51:06.469Z,1.57
2019-02-03T21:53:35.585Z,1.80
2019-02-03T21:56:04.261Z,2.70
2019-02-03T21:58:33.179Z,3.03
2019-02-03T22:01:01.868Z,4.37
2019-02-03T22:03:30.511Z,3.00
2019-02-03T22:05:59.268Z,2.37
2019-02-03T22:08:28.373Z,2.30
2019-02-03T22:10:57.118Z,3.20
2019-02-03T22:13:25.770Z,2.07
2019-02-03T22:15:56.072Z,1.33
2019-02-03T22:18:25.029Z,2.00
2019-02-03T22:20:53.710Z,1.23
2019-02-03T22:23:22.337Z,1.50
2019-02-03T22:25:51.069Z,2.20
2019-02-03T22:28:19.841Z,2.20
2019-02-03T22:30:48.515Z,1.30
2019-02-03T22:33:17.235Z,2.20
2019-02-03T22:35:45.870Z,1.90
2019-02-03T22:38:14.562Z,1.87
2019-02-03T22:40:43.294Z,2.70
2019-02-03T22:43:11.971Z,2.50
2019-02-03T22:45:40.673Z,2.23
2019-02-03T22:48:09.319Z,2.00
2019-02-03T22:50:38.015Z,1.63
2019-02-03T22:53:06.645Z,1.87
2019-02-03T22:55:35.282Z,3.23
2019-02-03T22:58:03.957Z,2.30
2019-02-03T23:00:45.924Z,1.73
2019-02-03T23:03:15.398Z,2.10
2019-02-03T23:05:44.081Z,2.63
2019-02-03T23:08:12.718Z,2.47
2019-02-03T23:10:41.406Z,1.43
2019-02-03T23:13:10.364Z,2.33
2019-02-03T23:15:39.537Z,2.67
2019-02-03T23:18:08.401Z,1.77
2019-02-03T23:20:37.157Z,1.90
2019-02-03T23:23:05.767Z,1.73
2019-02-03T23:25:34.466Z,2.10
2019-02-03T23:28:03.123Z,1.40
2019-02-03T23:30:31.797Z,2.10
2019-02-03T23:33:00.768Z,1.93
2019-02-03T23:35:29.385Z,2.10
2019-02-03T23:37:58.080Z,2.20
2019-02-03T23:40:26.696Z,2.10
2019-02-03T23:42:55.322Z,2.10
2019-02-03T23:45:24.012Z,2.60
2019-02-03T23:47:53.217Z,1.90
2019-02-03T23:50:22.622Z,1.63
2019-02-03T23:52:51.233Z,2.10
2019-02-03T23:55:19.931Z,1.87
2019-02-03T23:57:48.546Z,1.20
